KOKM

Okmulgee Regional Airport

Okmulgee, Oklahoma, USA
METAR KOKM 261315Z AUTO 00000KT 10SM CLR 22/20 A2986 RMK AO2 T02200203
Observed Flight Rules
May-26 @ 13:15 UTC (20 minutes ago) Visual Flight Rules
Visibility Clouds
10 miles
  • Clear skies
Temperatures Readings
Current 22°C / 72°F
Dewpoint 20°C / 68°F
Humidity 88%
Altimeter 29.86" Hg
Pressure 1011 hPa
Elevation 220
METAR KOKM 261315Z AUTO 00000KT 10SM CLR 22/20 A2986 RMK AO2 T02200203
Observed Flight Rules
May-26 @ 13:15 UTC
(20 minutes ago)
VFR
Clouds
  • Clear skies
Temperature Dewpoint
22°C / 72°F 20°C / 68°F
Humidity Altimeter Pressure
88% 29.86" Hg 1011 hPa